sensor_id;sensor_type;location;lat;lon;timestamp;pressure;altitude;pressure_sealevel;temperature;humidity
74529;BME280;63009;52.584;5.932;2022-08-19T19:36:35;101597.44;;;26.11;62.59
74529;BME280;63009;52.584;5.932;2022-08-19T19:39:00;101604.50;;;26.37;67.39
74529;BME280;63009;52.584;5.932;2022-08-19T19:50:34;101587.47;;;24.12;67.20
74529;BME280;63009;52.584;5.932;2022-08-19T19:52:59;101590.72;;;23.54;68.44
74529;BME280;63009;52.584;5.932;2022-08-19T19:55:24;101599.81;;;23.17;70.45
74529;BME280;63009;52.584;5.932;2022-08-19T19:57:51;101579.22;;;22.71;71.77
74529;BME280;63009;52.584;5.932;2022-08-19T20:00:18;101594.63;;;22.51;72.59
74529;BME280;63009;52.584;5.932;2022-08-19T20:02:44;101580.59;;;22.20;74.02
74529;BME280;63009;52.584;5.932;2022-08-19T20:07:37;101584.03;;;21.93;74.94
74529;BME280;63009;52.584;5.932;2022-08-19T20:10:22;101597.06;;;21.88;74.75
74529;BME280;63009;52.584;5.932;2022-08-19T20:12:48;101596.22;;;21.78;75.59
74529;BME280;63009;52.584;5.932;2022-08-19T20:15:16;101607.28;;;21.65;75.89
74529;BME280;63009;52.584;5.932;2022-08-19T20:17:41;101587.75;;;21.53;76.57
74529;BME280;63009;52.584;5.932;2022-08-19T20:20:11;101598.66;;;21.52;76.73
74529;BME280;63009;52.584;5.932;2022-08-19T20:22:38;101599.50;;;21.52;77.28
74529;BME280;63009;52.584;5.932;2022-08-19T20:25:05;101600.94;;;21.47;77.73
74529;BME280;63009;52.584;5.932;2022-08-19T20:27:31;101602.06;;;21.44;78.30
74529;BME280;63009;52.584;5.932;2022-08-19T20:29:57;101598.09;;;21.39;78.56
74529;BME280;63009;52.584;5.932;2022-08-19T20:32:23;101590.88;;;21.29;78.47
74529;BME280;63009;52.584;5.932;2022-08-19T20:34:48;101601.34;;;21.32;79.08
74529;BME280;63009;52.584;5.932;2022-08-19T20:37:13;101604.19;;;21.31;79.08
74529;BME280;63009;52.584;5.932;2022-08-19T20:39:39;101589.44;;;21.16;78.98
74529;BME280;63009;52.584;5.932;2022-08-19T20:42:04;101607.81;;;21.20;79.49
74529;BME280;63009;52.584;5.932;2022-08-19T20:44:29;101603.88;;;21.15;79.76
74529;BME280;63009;52.584;5.932;2022-08-19T20:46:55;101614.63;;;21.15;80.04
74529;BME280;63009;52.584;5.932;2022-08-19T20:49:20;101614.72;;;21.03;80.53
74529;BME280;63009;52.584;5.932;2022-08-19T20:51:45;101616.72;;;21.11;80.12
74529;BME280;63009;52.584;5.932;2022-08-19T20:54:11;101615.44;;;21.05;80.81
74529;BME280;63009;52.584;5.932;2022-08-19T20:56:36;101625.47;;;21.03;80.94
74529;BME280;63009;52.584;5.932;2022-08-19T20:59:02;101629.88;;;21.04;80.88
74529;BME280;63009;52.584;5.932;2022-08-19T21:01:29;101616.25;;;20.96;80.27
74529;BME280;63009;52.584;5.932;2022-08-19T21:03:54;101620.78;;;20.96;80.08
74529;BME280;63009;52.584;5.932;2022-08-19T21:06:19;101617.81;;;20.89;80.46
74529;BME280;63009;52.584;5.932;2022-08-19T21:08:45;101610.56;;;20.80;80.21
74529;BME280;63009;52.584;5.932;2022-08-19T21:16:00;101629.22;;;20.72;79.64
74529;BME280;63009;52.584;5.932;2022-08-19T21:18:25;101641.66;;;20.73;79.86
74529;BME280;63009;52.584;5.932;2022-08-19T21:20:52;101638.25;;;20.71;79.59
74529;BME280;63009;52.584;5.932;2022-08-19T21:23:21;101628.75;;;20.67;79.61
74529;BME280;63009;52.584;5.932;2022-08-19T21:25:47;101634.28;;;20.65;79.53
74529;BME280;63009;52.584;5.932;2022-08-19T21:28:15;101634.41;;;20.64;79.72
74529;BME280;63009;52.584;5.932;2022-08-19T21:30:40;101632.13;;;20.59;79.76
74529;BME280;63009;52.584;5.932;2022-08-19T21:33:05;101640.19;;;20.59;80.16
74529;BME280;63009;52.584;5.932;2022-08-19T21:35:31;101621.75;;;20.45;79.41
74529;BME280;63009;52.584;5.932;2022-08-19T21:37:57;101626.84;;;20.48;80.20
74529;BME280;63009;52.584;5.932;2022-08-19T21:40:24;101629.69;;;20.47;80.05
74529;BME280;63009;52.584;5.932;2022-08-19T21:42:49;101624.94;;;20.39;79.80
74529;BME280;63009;52.584;5.932;2022-08-19T21:45:15;101633.97;;;20.38;79.83
74529;BME280;63009;52.584;5.932;2022-08-19T21:47:42;101622.22;;;20.29;79.97
74529;BME280;63009;52.584;5.932;2022-08-19T21:50:08;101639.75;;;20.33;79.75
74529;BME280;63009;52.584;5.932;2022-08-19T21:52:35;101635.03;;;20.26;79.92
74529;BME280;63009;52.584;5.932;2022-08-19T21:55:01;101643.34;;;20.23;79.80
74529;BME280;63009;52.584;5.932;2022-08-19T21:57:26;101622.81;;;20.12;79.80
74529;BME280;63009;52.584;5.932;2022-08-19T21:59:52;101625.47;;;20.12;79.72
74529;BME280;63009;52.584;5.932;2022-08-19T22:02:18;101648.28;;;20.17;79.65
74529;BME280;63009;52.584;5.932;2022-08-19T22:04:44;101642.56;;;20.11;79.50
74529;BME280;63009;52.584;5.932;2022-08-19T22:07:10;101641.59;;;20.12;80.29
74529;BME280;63009;52.584;5.932;2022-08-19T22:09:39;101636.75;;;20.06;80.06
74529;BME280;63009;52.584;5.932;2022-08-19T22:12:06;101644.09;;;20.04;80.94
74529;BME280;63009;52.584;5.932;2022-08-19T22:14:33;101646.19;;;20.00;80.69
74529;BME280;63009;52.584;5.932;2022-08-19T22:16:58;101654.47;;;19.97;80.75
74529;BME280;63009;52.584;5.932;2022-08-19T22:19:25;101656.00;;;19.90;80.75
74529;BME280;63009;52.584;5.932;2022-08-19T22:21:50;101658.09;;;19.86;81.15
74529;BME280;63009;52.584;5.932;2022-08-19T22:24:16;101650.81;;;19.77;80.93
74529;BME280;63009;52.584;5.932;2022-08-19T22:26:41;101659.31;;;19.82;80.88
74529;BME280;63009;52.584;5.932;2022-08-19T22:29:06;101649.00;;;19.78;81.17
74529;BME280;63009;52.584;5.932;2022-08-19T22:31:31;101661.16;;;19.82;81.18
74529;BME280;63009;52.584;5.932;2022-08-19T22:33:57;101653.38;;;19.79;81.26
74529;BME280;63009;52.584;5.932;2022-08-19T22:36:22;101661.56;;;19.77;81.14
74529;BME280;63009;52.584;5.932;2022-08-19T22:38:47;101667.19;;;19.74;81.01
74529;BME280;63009;52.584;5.932;2022-08-19T22:41:12;101666.47;;;19.72;81.24
74529;BME280;63009;52.584;5.932;2022-08-19T22:43:39;101673.75;;;19.70;81.82
74529;BME280;63009;52.584;5.932;2022-08-19T22:46:05;101671.47;;;19.66;81.13
74529;BME280;63009;52.584;5.932;2022-08-19T22:48:30;101665.53;;;19.62;81.35
74529;BME280;63009;52.584;5.932;2022-08-19T22:50:57;101670.03;;;19.62;81.09
74529;BME280;63009;52.584;5.932;2022-08-19T22:53:44;101676.38;;;19.61;80.99
74529;BME280;63009;52.584;5.932;2022-08-19T22:56:11;101672.97;;;19.59;81.36
74529;BME280;63009;52.584;5.932;2022-08-19T22:58:37;101666.50;;;19.50;81.22
74529;BME280;63009;52.584;5.932;2022-08-19T23:01:03;101674.28;;;19.53;81.70
74529;BME280;63009;52.584;5.932;2022-08-19T23:03:29;101678.22;;;19.49;81.54
74529;BME280;63009;52.584;5.932;2022-08-19T23:05:54;101674.69;;;19.48;81.42
74529;BME280;63009;52.584;5.932;2022-08-19T23:08:20;101665.91;;;19.46;81.59
74529;BME280;63009;52.584;5.932;2022-08-19T23:10:46;101671.75;;;19.40;81.94
74529;BME280;63009;52.584;5.932;2022-08-19T23:13:12;101688.69;;;19.41;81.94
74529;BME280;63009;52.584;5.932;2022-08-19T23:15:38;101684.56;;;19.37;82.08
74529;BME280;63009;52.584;5.932;2022-08-19T23:18:03;101689.22;;;19.35;82.16
74529;BME280;63009;52.584;5.932;2022-08-19T23:20:35;101674.59;;;19.27;82.30
74529;BME280;63009;52.584;5.932;2022-08-19T23:23:07;101685.81;;;19.33;82.41
74529;BME280;63009;52.584;5.932;2022-08-19T23:25:34;101691.31;;;19.31;82.57
74529;BME280;63009;52.584;5.932;2022-08-19T23:27:59;101679.22;;;19.25;82.40
74529;BME280;63009;52.584;5.932;2022-08-19T23:30:45;101680.94;;;19.26;82.67
74529;BME280;63009;52.584;5.932;2022-08-19T23:33:15;101679.97;;;19.27;82.83
74529;BME280;63009;52.584;5.932;2022-08-19T23:35:43;101676.19;;;19.30;82.29
74529;BME280;63009;52.584;5.932;2022-08-19T23:38:09;101684.38;;;19.28;82.51
74529;BME280;63009;52.584;5.932;2022-08-19T23:40:35;101682.63;;;19.27;82.32
74529;BME280;63009;52.584;5.932;2022-08-19T23:43:01;101685.22;;;19.29;82.32
74529;BME280;63009;52.584;5.932;2022-08-19T23:45:27;101687.28;;;19.25;82.43
74529;BME280;63009;52.584;5.932;2022-08-19T23:47:53;101680.34;;;19.23;82.57
74529;BME280;63009;52.584;5.932;2022-08-19T23:50:21;101667.91;;;19.22;82.48
74529;BME280;63009;52.584;5.932;2022-08-19T23:52:52;101670.22;;;19.26;82.88
74529;BME280;63009;52.584;5.932;2022-08-19T23:55:21;101674.00;;;19.24;82.93
74529;BME280;63009;52.584;5.932;2022-08-19T23:57:46;101670.72;;;19.20;83.11
